createdAt,value
2023-05-14T00:00:40.217Z,1727.00
2023-05-14T00:01:40.249Z,1737.00
2023-05-14T00:02:40.340Z,1733.00
2023-05-14T00:03:40.381Z,1753.00
2023-05-14T00:04:40.395Z,1747.00
2023-05-14T00:05:40.313Z,1732.00
2023-05-14T00:06:40.339Z,1731.00
2023-05-14T00:07:40.363Z,1753.00
2023-05-14T00:08:40.383Z,1733.00
2023-05-14T00:09:40.432Z,1734.00
2023-05-14T00:10:40.435Z,1740.00
2023-05-14T00:11:40.448Z,1724.00
2023-05-14T00:12:40.467Z,1712.00
2023-05-14T00:13:40.503Z,1702.00
2023-05-14T00:14:40.516Z,1687.00
2023-05-14T00:15:40.538Z,1691.00
2023-05-14T00:16:40.556Z,1666.00
2023-05-14T00:17:40.571Z,1675.00
2023-05-14T00:18:40.750Z,1656.00
2023-05-14T00:19:41.042Z,1677.00
2023-05-14T00:20:40.625Z,1652.00
2023-05-14T00:21:40.657Z,1664.00
2023-05-14T00:22:40.682Z,1650.00
2023-05-14T00:23:40.703Z,1664.00
2023-05-14T00:24:40.722Z,1662.00
2023-05-14T00:25:40.729Z,1657.00
2023-05-14T00:26:40.771Z,1681.00
2023-05-14T00:27:40.796Z,1670.00
2023-05-14T00:28:40.803Z,1654.00
2023-05-14T00:29:40.833Z,1658.00
2023-05-14T00:30:40.846Z,1653.00
2023-05-14T00:31:40.916Z,1683.00
2023-05-14T00:32:40.900Z,1664.00
2023-05-14T00:33:40.935Z,1668.00
2023-05-14T00:34:40.955Z,1672.00
2023-05-14T00:35:41.022Z,1664.00
2023-05-14T00:36:40.985Z,1650.00
2023-05-14T00:37:41.017Z,1659.00
2023-05-14T00:38:41.034Z,1662.00
2023-05-14T00:39:41.073Z,1647.00
2023-05-14T00:40:41.094Z,1657.00
2023-05-14T00:41:41.135Z,1635.00
2023-05-14T00:42:41.163Z,1632.00
2023-05-14T00:43:41.167Z,1637.00
2023-05-14T00:44:41.207Z,1615.00
2023-05-14T00:45:41.209Z,1618.00
2023-05-14T00:46:41.260Z,1601.00
2023-05-14T00:47:41.294Z,1596.00
2023-05-14T00:48:41.277Z,1603.00
2023-05-14T00:49:41.315Z,1607.00
2023-05-14T00:50:41.316Z,1579.00
2023-05-14T00:51:41.351Z,1609.00
2023-05-14T00:52:41.388Z,1602.00
2023-05-14T00:53:41.423Z,1584.00
2023-05-14T00:54:41.473Z,1569.00
2023-05-14T00:55:41.461Z,1577.00
2023-05-14T00:56:41.471Z,1599.00
2023-05-14T00:57:41.490Z,1594.00
2023-05-14T00:58:41.527Z,1590.00
2023-05-14T00:59:41.546Z,1570.00
2023-05-14T01:00:41.588Z,1582.00
2023-05-14T01:01:41.592Z,1557.00
2023-05-14T01:02:41.733Z,1574.00
2023-05-14T01:03:41.829Z,1575.00
2023-05-14T01:04:41.673Z,1577.00
2023-05-14T01:05:41.700Z,1559.00
2023-05-14T01:06:41.727Z,1555.00
2023-05-14T01:07:41.749Z,1560.00
2023-05-14T01:08:41.775Z,1539.00
2023-05-14T01:09:41.808Z,1555.00
2023-05-14T01:10:41.830Z,1552.00
2023-05-14T01:11:41.842Z,1547.00
2023-05-14T01:12:41.869Z,1550.00
2023-05-14T01:13:41.907Z,1536.00
2023-05-14T01:14:41.947Z,1535.00
2023-05-14T01:15:41.963Z,1535.00
2023-05-14T01:16:42.043Z,1538.00
2023-05-14T01:17:42.154Z,1537.00
2023-05-14T01:18:42.079Z,1530.00
2023-05-14T01:19:42.070Z,1527.00
2023-05-14T01:20:42.102Z,1526.00
2023-05-14T01:21:42.103Z,1531.00
2023-05-14T01:22:42.153Z,1541.00
2023-05-14T01:23:42.179Z,1536.00
2023-05-14T01:24:42.203Z,1545.00
2023-05-14T01:25:42.227Z,1535.00
2023-05-14T01:26:42.226Z,1544.00
2023-05-14T01:27:42.263Z,1540.00
2023-05-14T01:28:42.286Z,1557.00
2023-05-14T01:29:42.316Z,1553.00
2023-05-14T01:30:42.334Z,1553.00
2023-05-14T01:31:42.383Z,1539.00
2023-05-14T01:32:42.441Z,1543.00
2023-05-14T01:33:42.435Z,1541.00
2023-05-14T01:34:42.448Z,1534.00
2023-05-14T01:35:42.458Z,1535.00
2023-05-14T01:36:42.488Z,1529.00
2023-05-14T01:37:42.514Z,1525.00
2023-05-14T01:38:42.529Z,1539.00
2023-05-14T01:39:42.588Z,1545.00
2023-05-14T01:40:42.576Z,1528.00
2023-05-14T01:41:42.599Z,1543.00
2023-05-14T01:42:42.645Z,1528.00
2023-05-14T01:43:42.648Z,1538.00
2023-05-14T01:44:42.683Z,1534.00
2023-05-14T01:45:42.763Z,1529.00
2023-05-14T01:46:42.798Z,1533.00
2023-05-14T01:47:42.834Z,1522.00
2023-05-14T01:48:42.796Z,1534.00
2023-05-14T01:49:42.827Z,1534.00
2023-05-14T01:50:42.860Z,1525.00
2023-05-14T01:51:42.870Z,1533.00
2023-05-14T01:52:42.890Z,1531.00
2023-05-14T01:53:42.908Z,1523.00
2023-05-14T01:54:42.953Z,1516.00
2023-05-14T01:55:42.962Z,1511.00
2023-05-14T01:56:42.984Z,1521.00
2023-05-14T01:57:43.025Z,1521.00
2023-05-14T01:58:43.065Z,1526.00
2023-05-14T01:59:43.077Z,1536.00
2023-05-14T02:00:43.109Z,1529.00
2023-05-14T02:01:43.144Z,1523.00
2023-05-14T02:02:43.185Z,1521.00
2023-05-14T02:03:43.223Z,1523.00
2023-05-14T02:04:43.211Z,1506.00
2023-05-14T02:05:43.237Z,1504.00
2023-05-14T02:06:43.277Z,1510.00
2023-05-14T02:07:43.297Z,1492.00
2023-05-14T02:08:43.339Z,1475.00
2023-05-14T02:09:43.369Z,1471.00
2023-05-14T02:10:43.378Z,1473.00
2023-05-14T02:11:43.408Z,1470.00
2023-05-14T02:12:43.457Z,1470.00
2023-05-14T02:13:43.478Z,1473.00
2023-05-14T02:14:43.533Z,1477.00
2023-05-14T02:15:43.581Z,1473.00
2023-05-14T02:16:43.604Z,1471.00
2023-05-14T02:17:43.656Z,1467.00
2023-05-14T02:18:43.700Z,1451.00
2023-05-14T02:19:43.690Z,1463.00
2023-05-14T02:20:43.725Z,1469.00
2023-05-14T02:21:43.785Z,1447.00
2023-05-14T02:22:43.772Z,1456.00
2023-05-14T02:23:43.820Z,1462.00
2023-05-14T02:24:43.871Z,1466.00
2023-05-14T02:25:43.904Z,1433.00
2023-05-14T02:26:43.916Z,1467.00
2023-05-14T02:27:43.972Z,1436.00
2023-05-14T02:28:43.975Z,1443.00
2023-05-14T02:29:44.003Z,1447.00
2023-05-14T02:30:44.037Z,1441.00
2023-05-14T02:31:44.127Z,1446.00
2023-05-14T02:32:44.243Z,1442.00
2023-05-14T02:33:44.232Z,1449.00
2023-05-14T02:34:44.173Z,1440.00
2023-05-14T02:35:44.226Z,1420.00
2023-05-14T02:36:44.255Z,1432.00
2023-05-14T02:37:44.295Z,1434.00
2023-05-14T02:38:44.308Z,1411.00
2023-05-14T02:39:44.352Z,1423.00
2023-05-14T02:40:44.397Z,1418.00
2023-05-14T02:41:44.411Z,1414.00
2023-05-14T02:42:44.447Z,1403.00
2023-05-14T02:43:44.534Z,1423.00
2023-05-14T02:44:44.557Z,1414.00
2023-05-14T02:45:44.558Z,1404.00
2023-05-14T02:46:44.599Z,1408.00
2023-05-14T02:47:44.668Z,1422.00
2023-05-14T02:48:44.669Z,1400.00
2023-05-14T02:49:44.701Z,1401.00
2023-05-14T02:50:44.741Z,1386.00
2023-05-14T02:51:44.767Z,1387.00
2023-05-14T02:52:44.820Z,1391.00
2023-05-14T02:53:44.864Z,1385.00
2023-05-14T02:54:44.917Z,1373.00
2023-05-14T02:55:44.930Z,1400.00
2023-05-14T02:56:44.976Z,1388.00
2023-05-14T02:57:44.993Z,1361.00
2023-05-14T02:58:45.034Z,1367.00
2023-05-14T02:59:45.059Z,1376.00
2023-05-14T03:00:45.189Z,1365.00
2023-05-14T03:01:45.165Z,1368.00
2023-05-14T03:02:45.230Z,1380.00
2023-05-14T03:03:45.204Z,1377.00
2023-05-14T03:04:45.273Z,1368.00
2023-05-14T03:05:45.280Z,1370.00
2023-05-14T03:06:45.321Z,1372.00
2023-05-14T03:07:45.349Z,1376.00
2023-05-14T03:08:45.386Z,1377.00
2023-05-14T03:09:45.416Z,1386.00
2023-05-14T03:10:45.470Z,1372.00
2023-05-14T03:11:45.492Z,1360.00
2023-05-14T03:12:45.548Z,1345.00
2023-05-14T03:13:45.576Z,1338.00
2023-05-14T03:14:45.611Z,1340.00
2023-05-14T03:15:45.712Z,1336.00
2023-05-14T03:16:45.713Z,1334.00
2023-05-14T03:17:45.751Z,1339.00
2023-05-14T03:18:45.804Z,1337.00
2023-05-14T03:19:45.823Z,1339.00
2023-05-14T03:20:45.864Z,1348.00
2023-05-14T03:21:45.899Z,1371.00
2023-05-14T03:22:45.929Z,1347.00
2023-05-14T03:23:45.963Z,1345.00
2023-05-14T03:24:46.015Z,1339.00
2023-05-14T03:25:46.102Z,1347.00
2023-05-14T03:26:46.098Z,1347.00
2023-05-14T03:27:46.134Z,1345.00
2023-05-14T03:28:46.157Z,1335.00
2023-05-14T03:29:46.208Z,1339.00
2023-05-14T03:30:46.311Z,1339.00
2023-05-14T03:31:46.282Z,1333.00
2023-05-14T03:32:46.372Z,1344.00
2023-05-14T03:33:46.374Z,1359.00
2023-05-14T03:34:46.414Z,1362.00
2023-05-14T03:35:46.463Z,1329.00
2023-05-14T03:36:46.493Z,1338.00
2023-05-14T03:37:46.526Z,1352.00
2023-05-14T03:38:46.572Z,1327.00
2023-05-14T03:39:46.626Z,1330.00
2023-05-14T03:40:46.674Z,1337.00
2023-05-14T03:41:46.700Z,1340.00
2023-05-14T03:42:46.750Z,1327.00
2023-05-14T03:43:46.789Z,1332.00
2023-05-14T03:44:46.816Z,1322.00
2023-05-14T03:45:46.869Z,1323.00
2023-05-14T03:46:46.907Z,1345.00
2023-05-14T03:47:47.010Z,1331.00
2023-05-14T03:48:47.029Z,1318.00
2023-05-14T03:49:47.039Z,1323.00
2023-05-14T03:50:47.097Z,1307.00
2023-05-14T03:51:47.126Z,1320.00
2023-05-14T03:52:47.172Z,1316.00
2023-05-14T03:53:47.220Z,1314.00
2023-05-14T03:54:47.252Z,1318.00
2023-05-14T03:55:47.295Z,1321.00
2023-05-14T03:56:47.331Z,1313.00
2023-05-14T03:57:47.384Z,1306.00
2023-05-14T03:58:47.426Z,1297.00
2023-05-14T03:59:47.452Z,1309.00
2023-05-14T04:00:47.507Z,1307.00
2023-05-14T04:01:47.539Z,1301.00
2023-05-14T04:02:47.609Z,1309.00
2023-05-14T04:03:47.825Z,1294.00
2023-05-14T04:04:47.773Z,1291.00
2023-05-14T04:05:47.718Z,1286.00
2023-05-14T04:06:47.743Z,1299.00
2023-05-14T04:07:47.803Z,1291.00
2023-05-14T04:08:47.839Z,1293.00
2023-05-14T04:09:47.877Z,1280.00
2023-05-14T04:10:47.925Z,1292.00
2023-05-14T04:11:47.940Z,1295.00
2023-05-14T04:12:48.002Z,1295.00
2023-05-14T04:13:48.050Z,1302.00
2023-05-14T04:14:48.093Z,1283.00
2023-05-14T04:15:48.122Z,1274.00
2023-05-14T04:16:48.188Z,1293.00
2023-05-14T04:17:48.253Z,1285.00
2023-05-14T04:18:48.311Z,1282.00
2023-05-14T04:19:48.279Z,1287.00
2023-05-14T04:20:48.320Z,1281.00
2023-05-14T04:21:48.345Z,1274.00
2023-05-14T04:22:48.364Z,1271.00
2023-05-14T04:23:48.414Z,1277.00
2023-05-14T04:24:48.462Z,1285.00
2023-05-14T04:25:48.502Z,1260.00
2023-05-14T04:26:48.530Z,1264.00
2023-05-14T04:27:48.572Z,1260.00
2023-05-14T04:28:48.605Z,1258.00
2023-05-14T04:29:48.635Z,1251.00
2023-05-14T04:30:48.674Z,1259.00
2023-05-14T04:31:48.751Z,1260.00
2023-05-14T04:32:48.827Z,1247.00
2023-05-14T04:33:48.812Z,1226.00
2023-05-14T04:34:48.853Z,1241.00
2023-05-14T04:35:48.912Z,1244.00
2023-05-14T04:36:48.946Z,1231.00
2023-05-14T04:37:48.979Z,1227.00
2023-05-14T04:38:49.004Z,1215.00
2023-05-14T04:39:49.081Z,1214.00
2023-05-14T04:40:49.098Z,1227.00
2023-05-14T04:41:49.140Z,1202.00
2023-05-14T04:42:49.198Z,1217.00
2023-05-14T04:43:49.255Z,1212.00
2023-05-14T04:44:49.289Z,1216.00
2023-05-14T04:45:49.388Z,1215.00
2023-05-14T04:46:49.379Z,1205.00
2023-05-14T04:47:49.455Z,1202.00
2023-05-14T04:48:49.451Z,1197.00
2023-05-14T04:49:49.505Z,1211.00
2023-05-14T04:50:49.558Z,1185.00
2023-05-14T04:51:49.561Z,1194.00
2023-05-14T04:52:49.611Z,1176.00
2023-05-14T04:53:49.653Z,1176.00
2023-05-14T04:54:49.775Z,1181.00
2023-05-14T04:55:49.758Z,1169.00
2023-05-14T04:56:49.758Z,1180.00
2023-05-14T04:57:49.806Z,1183.00
2023-05-14T04:58:49.846Z,1181.00
2023-05-14T04:59:49.881Z,1168.00
2023-05-14T05:00:49.939Z,1163.00
2023-05-14T05:01:49.994Z,1174.00
2023-05-14T05:02:50.036Z,1160.00
2023-05-14T05:03:50.128Z,1168.00
2023-05-14T05:04:50.098Z,1161.00
2023-05-14T05:05:50.156Z,1165.00
2023-05-14T05:06:50.180Z,1167.00
2023-05-14T05:07:50.216Z,1172.00
2023-05-14T05:08:50.249Z,1157.00
2023-05-14T05:09:50.296Z,1167.00
2023-05-14T05:10:50.366Z,1164.00
2023-05-14T05:11:50.390Z,1161.00
2023-05-14T05:12:50.444Z,1164.00
2023-05-14T05:13:50.495Z,1161.00
2023-05-14T05:14:50.522Z,1156.00
2023-05-14T05:15:50.611Z,1154.00
2023-05-14T05:16:50.606Z,1131.00
2023-05-14T05:17:50.662Z,1112.00
2023-05-14T05:18:50.742Z,1141.00
2023-05-14T05:19:50.739Z,1136.00
2023-05-14T05:20:50.810Z,1113.00
2023-05-14T05:21:50.829Z,1133.00
2023-05-14T05:22:50.858Z,1108.00
2023-05-14T05:23:50.909Z,1114.00
2023-05-14T05:24:50.932Z,1102.00
2023-05-14T05:25:51.007Z,1131.00
2023-05-14T05:26:51.034Z,1122.00
2023-05-14T05:27:51.083Z,1111.00
2023-05-14T05:28:51.127Z,1123.00
2023-05-14T05:29:51.170Z,1141.00
2023-05-14T05:30:51.241Z,1141.00
2023-05-14T05:31:51.298Z,1115.00
2023-05-14T05:32:51.320Z,1082.00
2023-05-14T05:33:51.363Z,1075.00
2023-05-14T05:34:51.414Z,1088.00
2023-05-14T05:35:51.462Z,1098.00
2023-05-14T05:36:51.515Z,1064.00
2023-05-14T05:37:51.568Z,1057.00
2023-05-14T05:38:51.598Z,1054.00
2023-05-14T05:39:51.664Z,1062.00
2023-05-14T05:40:51.716Z,1067.00
2023-05-14T05:41:51.758Z,1038.00
2023-05-14T05:42:51.794Z,1030.00
2023-05-14T05:43:51.859Z,1051.00
2023-05-14T05:44:51.891Z,1047.00
2023-05-14T05:45:51.957Z,1062.00
2023-05-14T05:46:52.028Z,1042.00
2023-05-14T05:47:52.077Z,1047.00
2023-05-14T05:48:52.106Z,1052.00
2023-05-14T05:49:52.154Z,1051.00
2023-05-14T05:50:52.193Z,1054.00
2023-05-14T05:51:52.249Z,1037.00
2023-05-14T05:52:52.309Z,1043.00
2023-05-14T05:53:52.381Z,1059.00
2023-05-14T05:54:52.410Z,1034.00
2023-05-14T05:55:52.474Z,1054.00
2023-05-14T05:56:52.510Z,1032.00
2023-05-14T05:57:52.544Z,1022.00
2023-05-14T05:58:52.603Z,1041.00
2023-05-14T05:59:52.648Z,1035.00
2023-05-14T06:00:52.701Z,1032.00
2023-05-14T06:01:52.787Z,1034.00
2023-05-14T06:02:52.826Z,1040.00
2023-05-14T06:03:52.841Z,1035.00
2023-05-14T06:04:52.971Z,1010.00
2023-05-14T06:05:53.026Z,1019.00
2023-05-14T06:06:52.973Z,1027.00
2023-05-14T06:07:53.025Z,1024.00
2023-05-14T06:08:53.064Z,1018.00
2023-05-14T06:09:53.108Z,1020.00
2023-05-14T06:10:53.172Z,1008.00
2023-05-14T06:11:53.221Z,1009.00
2023-05-14T06:12:53.254Z,1006.00
2023-05-14T06:13:53.316Z,1018.00
2023-05-14T06:14:53.359Z,985.00
2023-05-14T06:15:53.399Z,989.00
2023-05-14T06:16:53.612Z,988.00
2023-05-14T06:17:53.544Z,982.00
2023-05-14T06:18:53.574Z,995.00
2023-05-14T06:19:53.599Z,987.00
2023-05-14T06:20:53.653Z,994.00
2023-05-14T06:21:53.693Z,995.00
2023-05-14T06:22:53.748Z,981.00
2023-05-14T06:23:53.786Z,956.00
2023-05-14T06:24:53.838Z,965.00
2023-05-14T06:25:53.894Z,949.00
2023-05-14T06:26:53.920Z,953.00
2023-05-14T06:27:53.967Z,944.00
2023-05-14T06:28:54.025Z,929.00
2023-05-14T06:29:54.080Z,925.00
2023-05-14T06:30:54.111Z,909.00
2023-05-14T06:31:54.213Z,914.00
2023-05-14T06:32:54.272Z,914.00
2023-05-14T06:33:54.244Z,923.00
2023-05-14T06:34:54.289Z,904.00
2023-05-14T06:35:54.331Z,916.00
2023-05-14T06:36:54.414Z,901.00
2023-05-14T06:37:54.454Z,912.00
2023-05-14T06:38:54.503Z,900.00
2023-05-14T06:39:57.060Z,896.00
2023-05-14T06:40:54.509Z,905.00
2023-05-14T06:41:54.490Z,900.00
2023-05-14T06:42:54.491Z,912.00
2023-05-14T06:43:54.503Z,891.00
2023-05-14T06:44:54.490Z,892.00
2023-05-14T06:45:54.485Z,879.00
2023-05-14T06:46:54.454Z,857.00
2023-05-14T06:47:54.534Z,865.00
2023-05-14T06:48:55.671Z,833.00
2023-05-14T06:49:54.431Z,834.00
2023-05-14T06:50:54.438Z,839.00
2023-05-14T06:51:54.433Z,839.00
2023-05-14T06:52:54.433Z,837.00
2023-05-14T06:53:54.418Z,839.00
2023-05-14T06:54:54.430Z,836.00
2023-05-14T06:55:54.458Z,865.00
2023-05-14T06:56:54.516Z,840.00
2023-05-14T06:57:54.550Z,851.00
2023-05-14T06:58:54.596Z,830.00
2023-05-14T06:59:54.628Z,816.00
2023-05-14T07:00:54.662Z,825.00
2023-05-14T07:01:54.707Z,842.00
2023-05-14T07:02:54.762Z,823.00
2023-05-14T07:03:54.817Z,829.00
2023-05-14T07:04:54.802Z,824.00
2023-05-14T07:05:54.843Z,822.00
2023-05-14T07:06:54.879Z,801.00
2023-05-14T07:07:54.916Z,811.00
2023-05-14T07:08:54.983Z,800.00
2023-05-14T07:09:55.019Z,795.00
2023-05-14T07:10:55.054Z,811.00
2023-05-14T07:11:55.068Z,812.00
2023-05-14T07:12:55.098Z,806.00
2023-05-14T07:13:55.161Z,795.00
2023-05-14T07:14:55.164Z,778.00
2023-05-14T07:15:55.228Z,769.00
2023-05-14T07:16:55.298Z,777.00
2023-05-14T07:17:55.319Z,817.00
2023-05-14T07:18:55.367Z,824.00
2023-05-14T07:19:55.385Z,821.00
2023-05-14T07:20:55.416Z,820.00
2023-05-14T07:21:55.439Z,877.00
2023-05-14T07:22:55.473Z,897.00
2023-05-14T07:23:55.513Z,923.00
2023-05-14T07:24:55.523Z,918.00
2023-05-14T07:25:55.571Z,886.00
2023-05-14T07:26:55.602Z,905.00
2023-05-14T07:27:55.614Z,892.00
2023-05-14T07:28:55.641Z,898.00
2023-05-14T07:29:55.672Z,904.00
2023-05-14T07:30:55.734Z,881.00
2023-05-14T07:31:55.738Z,878.00
2023-05-14T07:32:55.801Z,842.00
2023-05-14T07:33:55.797Z,861.00
2023-05-14T07:34:55.803Z,870.00
2023-05-14T07:35:55.846Z,903.00
2023-05-14T07:36:55.850Z,917.00
2023-05-14T07:37:55.901Z,930.00
2023-05-14T07:38:55.906Z,944.00
2023-05-14T07:39:55.933Z,957.00
2023-05-14T07:40:55.950Z,974.00
2023-05-14T07:41:55.975Z,954.00
2023-05-14T07:42:55.996Z,970.00
2023-05-14T07:43:56.014Z,961.00
2023-05-14T07:44:56.053Z,983.00
2023-05-14T07:45:56.046Z,982.00
2023-05-14T07:46:56.073Z,975.00
2023-05-14T07:47:56.195Z,963.00
2023-05-14T07:48:56.091Z,976.00
2023-05-14T07:49:56.113Z,974.00
2023-05-14T07:50:56.127Z,982.00
2023-05-14T07:51:56.160Z,950.00
2023-05-14T07:52:56.163Z,955.00
2023-05-14T07:53:56.196Z,999.00
2023-05-14T07:54:56.244Z,1004.00
2023-05-14T07:55:56.217Z,996.00
2023-05-14T07:56:56.235Z,1018.00
2023-05-14T07:57:56.249Z,967.00
2023-05-14T07:58:56.257Z,970.00
2023-05-14T07:59:56.277Z,986.00
2023-05-14T08:00:56.300Z,1013.00
2023-05-14T08:01:56.384Z,1061.00
2023-05-14T08:02:56.419Z,1064.00
2023-05-14T08:03:56.437Z,1043.00
2023-05-14T08:04:56.348Z,1081.00
2023-05-14T08:05:56.380Z,1085.00
2023-05-14T08:06:56.401Z,1058.00
2023-05-14T08:07:56.413Z,1110.00
2023-05-14T08:08:56.425Z,1122.00
2023-05-14T08:09:56.428Z,1081.00
2023-05-14T08:10:56.462Z,1078.00
2023-05-14T08:11:56.443Z,1093.00
2023-05-14T08:12:56.462Z,1104.00
2023-05-14T08:13:56.432Z,1124.00
2023-05-14T08:14:56.446Z,1127.00
2023-05-14T08:15:56.445Z,1142.00
2023-05-14T08:16:56.533Z,1157.00
2023-05-14T08:17:56.469Z,1146.00
2023-05-14T08:18:56.454Z,1145.00
2023-05-14T08:19:56.431Z,1115.00
2023-05-14T08:20:56.453Z,1069.00
2023-05-14T08:21:56.448Z,1059.00
2023-05-14T08:22:56.454Z,980.00
2023-05-14T08:23:56.476Z,1012.00
2023-05-14T08:24:56.513Z,998.00
2023-05-14T08:25:56.518Z,1012.00
2023-05-14T08:26:56.545Z,959.00
2023-05-14T08:27:56.581Z,945.00
2023-05-14T08:28:56.610Z,949.00
2023-05-14T08:29:56.652Z,931.00
2023-05-14T08:30:56.732Z,893.00
2023-05-14T08:31:56.731Z,840.00
2023-05-14T08:32:56.823Z,865.00
2023-05-14T08:33:56.837Z,874.00
2023-05-14T08:34:56.887Z,830.00
2023-05-14T08:35:56.962Z,797.00
2023-05-14T08:36:57.025Z,814.00
2023-05-14T08:37:57.088Z,800.00
2023-05-14T08:38:57.152Z,805.00
2023-05-14T08:39:57.185Z,791.00
2023-05-14T08:40:57.319Z,781.00
2023-05-14T08:41:57.304Z,787.00
2023-05-14T08:42:57.391Z,813.00
2023-05-14T08:43:57.422Z,789.00
2023-05-14T08:44:57.466Z,767.00
2023-05-14T08:45:57.508Z,763.00
2023-05-14T08:46:57.547Z,744.00
2023-05-14T08:47:57.652Z,752.00
2023-05-14T08:48:57.747Z,762.00
2023-05-14T08:49:57.746Z,782.00
2023-05-14T08:50:57.765Z,776.00
2023-05-14T08:51:57.813Z,770.00
2023-05-14T08:52:57.846Z,791.00
2023-05-14T08:53:57.887Z,772.00
2023-05-14T08:54:57.946Z,773.00
2023-05-14T08:55:57.982Z,776.00
2023-05-14T08:56:58.026Z,764.00
2023-05-14T08:57:58.050Z,787.00
2023-05-14T08:58:58.087Z,776.00
2023-05-14T08:59:58.130Z,775.00
2023-05-14T09:00:58.167Z,800.00
2023-05-14T09:01:58.210Z,791.00
2023-05-14T09:02:58.247Z,777.00
2023-05-14T09:03:58.301Z,777.00
2023-05-14T09:04:58.269Z,769.00
2023-05-14T09:06:00.141Z,781.00
2023-05-14T09:06:58.337Z,775.00
2023-05-14T09:07:58.357Z,784.00
2023-05-14T09:08:58.376Z,781.00
2023-05-14T09:09:58.393Z,796.00
2023-05-14T09:10:58.424Z,799.00
2023-05-14T09:11:58.429Z,794.00
2023-05-14T09:12:58.458Z,777.00
2023-05-14T09:13:58.477Z,793.00
2023-05-14T09:14:58.485Z,779.00
2023-05-14T09:15:58.535Z,798.00
2023-05-14T09:16:58.545Z,770.00
2023-05-14T09:17:58.614Z,779.00
2023-05-14T09:18:58.585Z,783.00
2023-05-14T09:19:58.610Z,802.00
2023-05-14T09:20:58.655Z,791.00
2023-05-14T09:21:58.655Z,812.00
2023-05-14T09:22:58.651Z,821.00
2023-05-14T09:23:58.696Z,807.00
2023-05-14T09:24:58.698Z,839.00
2023-05-14T09:25:58.707Z,828.00
2023-05-14T09:26:58.717Z,792.00
2023-05-14T09:27:59.056Z,815.00
2023-05-14T09:28:58.738Z,806.00
2023-05-14T09:29:58.745Z,792.00
2023-05-14T09:30:58.744Z,797.00
2023-05-14T09:31:58.817Z,784.00
2023-05-14T09:32:58.796Z,779.00
2023-05-14T09:33:58.901Z,785.00
2023-05-14T09:34:58.783Z,796.00
2023-05-14T09:35:58.807Z,809.00
2023-05-14T09:36:58.814Z,827.00
2023-05-14T09:37:58.829Z,835.00
2023-05-14T09:38:58.844Z,838.00
2023-05-14T09:39:58.844Z,836.00
2023-05-14T09:40:58.881Z,825.00
2023-05-14T09:41:58.889Z,826.00
2023-05-14T09:42:58.916Z,838.00
2023-05-14T09:43:58.912Z,833.00
2023-05-14T09:44:58.922Z,818.00
2023-05-14T09:45:58.934Z,822.00
2023-05-14T09:46:59.056Z,838.00
2023-05-14T09:47:59.144Z,804.00
2023-05-14T09:48:59.013Z,812.00
2023-05-14T09:49:59.078Z,823.00
2023-05-14T09:50:59.081Z,816.00
2023-05-14T09:51:59.122Z,793.00
2023-05-14T09:52:59.100Z,786.00
2023-05-14T09:53:59.092Z,805.00
2023-05-14T09:54:59.134Z,791.00
2023-05-14T09:55:59.125Z,751.00
2023-05-14T09:56:59.146Z,762.00
2023-05-14T09:57:59.157Z,769.00
2023-05-14T09:58:59.204Z,795.00
2023-05-14T09:59:59.280Z,813.00
2023-05-14T10:00:59.325Z,790.00
2023-05-14T10:01:59.304Z,781.00
2023-05-14T10:02:59.335Z,771.00
2023-05-14T10:03:59.358Z,784.00
2023-05-14T10:04:59.358Z,772.00
2023-05-14T10:05:59.361Z,787.00
2023-05-14T10:06:59.375Z,762.00
2023-05-14T10:07:59.405Z,775.00
2023-05-14T10:08:59.401Z,775.00
2023-05-14T10:09:59.697Z,770.00
2023-05-14T10:10:59.402Z,758.00
2023-05-14T10:11:59.420Z,722.00
2023-05-14T10:12:59.425Z,732.00
2023-05-14T10:13:59.433Z,743.00
2023-05-14T10:14:59.432Z,718.00
2023-05-14T10:15:59.411Z,725.00
2023-05-14T10:16:59.446Z,729.00
2023-05-14T10:17:59.490Z,706.00
2023-05-14T10:18:59.492Z,708.00
2023-05-14T10:19:59.420Z,713.00
2023-05-14T10:20:59.423Z,709.00
2023-05-14T10:21:59.411Z,696.00
2023-05-14T10:22:59.417Z,704.00
2023-05-14T10:23:59.393Z,704.00
2023-05-14T10:24:59.396Z,721.00
2023-05-14T10:25:59.394Z,713.00
2023-05-14T10:26:59.413Z,709.00
2023-05-14T10:27:59.420Z,720.00
2023-05-14T10:28:59.424Z,731.00
2023-05-14T10:29:59.428Z,723.00
2023-05-14T10:30:59.477Z,715.00
2023-05-14T10:31:59.405Z,710.00
2023-05-14T10:32:59.481Z,711.00
2023-05-14T10:33:59.954Z,708.00
2023-05-14T10:34:59.424Z,707.00
2023-05-14T10:35:59.425Z,712.00
2023-05-14T10:36:59.419Z,699.00
2023-05-14T10:37:59.419Z,698.00
2023-05-14T10:38:59.451Z,685.00
2023-05-14T10:39:59.465Z,704.00
2023-05-14T10:40:59.443Z,683.00
2023-05-14T10:41:59.451Z,693.00
2023-05-14T10:42:59.450Z,688.00
2023-05-14T10:43:59.483Z,679.00
2023-05-14T10:44:59.445Z,674.00
2023-05-14T10:45:59.452Z,691.00
2023-05-14T10:46:59.500Z,689.00
2023-05-14T10:47:59.485Z,692.00
2023-05-14T10:48:59.441Z,671.00
2023-05-14T10:49:59.449Z,678.00
2023-05-14T10:50:59.503Z,694.00
2023-05-14T10:51:59.480Z,686.00
2023-05-14T10:52:59.443Z,665.00
2023-05-14T10:53:59.468Z,675.00
2023-05-14T10:55:02.678Z,665.00
2023-05-14T10:55:59.432Z,687.00
2023-05-14T10:56:59.429Z,669.00
2023-05-14T10:57:59.438Z,673.00
2023-05-14T10:58:59.425Z,669.00
2023-05-14T10:59:59.411Z,665.00
2023-05-14T11:00:59.411Z,670.00
2023-05-14T11:01:59.429Z,667.00
2023-05-14T11:02:59.433Z,661.00
2023-05-14T11:03:59.437Z,666.00
2023-05-14T11:04:59.392Z,668.00
2023-05-14T11:05:59.361Z,679.00
2023-05-14T11:06:59.372Z,682.00
2023-05-14T11:07:59.368Z,675.00
2023-05-14T11:08:59.355Z,682.00
2023-05-14T11:09:59.336Z,685.00
2023-05-14T11:10:59.351Z,690.00
2023-05-14T11:11:59.341Z,681.00
2023-05-14T11:12:59.334Z,705.00
2023-05-14T11:13:59.330Z,721.00
2023-05-14T11:14:59.335Z,694.00
2023-05-14T11:16:02.241Z,681.00
2023-05-14T11:17:00.362Z,683.00
2023-05-14T11:17:59.338Z,687.00
2023-05-14T11:18:59.309Z,686.00
2023-05-14T11:19:59.281Z,695.00
2023-05-14T11:20:59.394Z,710.00
2023-05-14T11:21:59.252Z,695.00
2023-05-14T11:22:59.250Z,679.00
2023-05-14T11:23:59.252Z,698.00
2023-05-14T11:24:59.250Z,707.00
2023-05-14T11:25:59.255Z,715.00
2023-05-14T11:26:59.244Z,725.00
2023-05-14T11:27:59.217Z,712.00
2023-05-14T11:28:59.208Z,729.00
2023-05-14T11:29:59.206Z,683.00
2023-05-14T11:30:59.192Z,717.00
2023-05-14T11:31:59.264Z,723.00
2023-05-14T11:33:01.778Z,730.00
2023-05-14T11:33:59.170Z,719.00
2023-05-14T11:34:59.167Z,741.00
2023-05-14T11:35:59.172Z,746.00
2023-05-14T11:36:59.168Z,734.00
2023-05-14T11:37:59.163Z,704.00
2023-05-14T11:38:59.153Z,736.00
2023-05-14T11:39:59.148Z,759.00
2023-05-14T11:40:59.150Z,768.00
2023-05-14T11:41:59.146Z,744.00
2023-05-14T11:42:59.158Z,751.00
2023-05-14T11:43:59.114Z,776.00
2023-05-14T11:44:59.097Z,777.00
2023-05-14T11:45:59.126Z,774.00
2023-05-14T11:46:59.116Z,746.00
2023-05-14T11:47:59.107Z,771.00
2023-05-14T11:48:59.080Z,745.00
2023-05-14T11:49:59.064Z,776.00
2023-05-14T11:50:59.064Z,792.00
2023-05-14T11:51:59.047Z,825.00
2023-05-14T11:52:59.052Z,820.00
2023-05-14T11:53:59.052Z,792.00
2023-05-14T11:54:59.018Z,820.00
2023-05-14T11:55:59.025Z,785.00
2023-05-14T11:56:59.007Z,842.00
2023-05-14T11:57:59.003Z,839.00
2023-05-14T11:58:59.003Z,816.00
2023-05-14T11:59:59.019Z,785.00
2023-05-14T12:00:59.005Z,782.00
2023-05-14T12:01:58.966Z,787.00
2023-05-14T12:02:59.013Z,806.00
2023-05-14T12:03:59.081Z,835.00
2023-05-14T12:04:58.948Z,816.00
2023-05-14T12:05:58.942Z,865.00
2023-05-14T12:06:58.936Z,834.00
2023-05-14T12:07:58.944Z,829.00
2023-05-14T12:08:58.919Z,812.00
2023-05-14T12:09:58.928Z,814.00
2023-05-14T12:10:58.970Z,788.00
2023-05-14T12:11:58.914Z,765.00
2023-05-14T12:12:58.896Z,739.00
2023-05-14T12:13:58.922Z,756.00
2023-05-14T12:14:58.878Z,769.00
2023-05-14T12:15:58.893Z,755.00
2023-05-14T12:16:58.880Z,743.00